sensor_id;sensor_type;location;lat;lon;timestamp;P1;durP1;ratioP1;P2;durP2;ratioP2
29500;SDS011;16450;50.288;10.966;2024-01-27T00:00:19;7.63;;;2.20;;
29500;SDS011;16450;50.288;10.966;2024-01-27T00:03:21;7.50;;;2.77;;
29500;SDS011;16450;50.288;10.966;2024-01-27T00:06:23;13.57;;;3.03;;
29500;SDS011;16450;50.288;10.966;2024-01-27T00:09:25;8.07;;;3.17;;
29500;SDS011;16450;50.288;10.966;2024-01-27T00:12:27;7.40;;;2.50;;
29500;SDS011;16450;50.288;10.966;2024-01-27T00:15:30;10.23;;;2.50;;
29500;SDS011;16450;50.288;10.966;2024-01-27T00:18:32;14.00;;;2.90;;
29500;SDS011;16450;50.288;10.966;2024-01-27T00:21:34;9.27;;;3.00;;
29500;SDS011;16450;50.288;10.966;2024-01-27T00:24:36;8.63;;;2.93;;
29500;SDS011;16450;50.288;10.966;2024-01-27T00:27:37;10.33;;;2.97;;
29500;SDS011;16450;50.288;10.966;2024-01-27T00:30:39;9.20;;;2.83;;
29500;SDS011;16450;50.288;10.966;2024-01-27T00:33:42;7.77;;;2.80;;
29500;SDS011;16450;50.288;10.966;2024-01-27T00:36:44;7.30;;;2.90;;
29500;SDS011;16450;50.288;10.966;2024-01-27T00:39:50;8.97;;;3.27;;
29500;SDS011;16450;50.288;10.966;2024-01-27T00:42:52;11.13;;;2.97;;
29500;SDS011;16450;50.288;10.966;2024-01-27T00:45:53;9.70;;;2.80;;
29500;SDS011;16450;50.288;10.966;2024-01-27T00:48:55;7.60;;;2.97;;
29500;SDS011;16450;50.288;10.966;2024-01-27T00:51:57;11.97;;;2.83;;
29500;SDS011;16450;50.288;10.966;2024-01-27T00:54:59;13.53;;;3.13;;
29500;SDS011;16450;50.288;10.966;2024-01-27T00:58:02;8.90;;;2.83;;
29500;SDS011;16450;50.288;10.966;2024-01-27T01:01:04;10.17;;;2.80;;
29500;SDS011;16450;50.288;10.966;2024-01-27T01:04:06;12.07;;;3.03;;
29500;SDS011;16450;50.288;10.966;2024-01-27T01:07:08;10.53;;;3.10;;
29500;SDS011;16450;50.288;10.966;2024-01-27T01:10:10;10.90;;;3.40;;
29500;SDS011;16450;50.288;10.966;2024-01-27T01:13:12;6.57;;;2.93;;
29500;SDS011;16450;50.288;10.966;2024-01-27T01:16:14;8.37;;;3.20;;
29500;SDS011;16450;50.288;10.966;2024-01-27T01:19:16;9.50;;;3.30;;
29500;SDS011;16450;50.288;10.966;2024-01-27T01:22:19;10.00;;;3.53;;
29500;SDS011;16450;50.288;10.966;2024-01-27T01:25:20;7.47;;;3.47;;
29500;SDS011;16450;50.288;10.966;2024-01-27T01:28:22;8.20;;;3.60;;
29500;SDS011;16450;50.288;10.966;2024-01-27T01:31:24;10.97;;;3.97;;
29500;SDS011;16450;50.288;10.966;2024-01-27T01:34:26;8.60;;;3.53;;
29500;SDS011;16450;50.288;10.966;2024-01-27T01:37:28;10.53;;;3.37;;
29500;SDS011;16450;50.288;10.966;2024-01-27T01:40:30;9.57;;;3.83;;
29500;SDS011;16450;50.288;10.966;2024-01-27T01:43:32;14.33;;;3.63;;
29500;SDS011;16450;50.288;10.966;2024-01-27T01:46:34;8.00;;;4.03;;
29500;SDS011;16450;50.288;10.966;2024-01-27T01:49:36;12.97;;;4.07;;
29500;SDS011;16450;50.288;10.966;2024-01-27T01:52:39;14.50;;;4.13;;
29500;SDS011;16450;50.288;10.966;2024-01-27T01:55:41;16.17;;;4.50;;
29500;SDS011;16450;50.288;10.966;2024-01-27T01:58:42;12.57;;;3.90;;
29500;SDS011;16450;50.288;10.966;2024-01-27T02:01:44;12.10;;;4.20;;
29500;SDS011;16450;50.288;10.966;2024-01-27T02:04:46;10.40;;;3.90;;
29500;SDS011;16450;50.288;10.966;2024-01-27T02:07:49;8.97;;;3.60;;
29500;SDS011;16450;50.288;10.966;2024-01-27T02:10:51;16.77;;;4.10;;
29500;SDS011;16450;50.288;10.966;2024-01-27T02:13:53;10.83;;;3.80;;
29500;SDS011;16450;50.288;10.966;2024-01-27T02:16:55;16.73;;;4.17;;
29500;SDS011;16450;50.288;10.966;2024-01-27T02:19:58;14.40;;;4.13;;
29500;SDS011;16450;50.288;10.966;2024-01-27T02:23:01;13.43;;;3.70;;
29500;SDS011;16450;50.288;10.966;2024-01-27T02:26:05;11.53;;;4.33;;
29500;SDS011;16450;50.288;10.966;2024-01-27T02:29:07;7.93;;;3.97;;
29500;SDS011;16450;50.288;10.966;2024-01-27T02:32:09;12.97;;;4.20;;
29500;SDS011;16450;50.288;10.966;2024-01-27T02:35:11;10.03;;;4.10;;
29500;SDS011;16450;50.288;10.966;2024-01-27T02:38:14;16.37;;;4.67;;
29500;SDS011;16450;50.288;10.966;2024-01-27T02:41:15;14.40;;;4.13;;
29500;SDS011;16450;50.288;10.966;2024-01-27T02:44:17;10.07;;;3.83;;
29500;SDS011;16450;50.288;10.966;2024-01-27T02:47:19;11.13;;;4.97;;
29500;SDS011;16450;50.288;10.966;2024-01-27T02:50:21;9.97;;;4.23;;
29500;SDS011;16450;50.288;10.966;2024-01-27T02:53:23;11.50;;;4.40;;
29500;SDS011;16450;50.288;10.966;2024-01-27T02:56:25;10.23;;;4.07;;
29500;SDS011;16450;50.288;10.966;2024-01-27T02:59:27;12.53;;;4.30;;
29500;SDS011;16450;50.288;10.966;2024-01-27T03:02:29;10.57;;;4.30;;
29500;SDS011;16450;50.288;10.966;2024-01-27T03:05:31;10.63;;;4.03;;
29500;SDS011;16450;50.288;10.966;2024-01-27T03:08:33;11.87;;;4.10;;
29500;SDS011;16450;50.288;10.966;2024-01-27T03:11:34;13.70;;;4.17;;
29500;SDS011;16450;50.288;10.966;2024-01-27T03:14:36;11.13;;;4.27;;
29500;SDS011;16450;50.288;10.966;2024-01-27T03:17:39;11.83;;;4.10;;
29500;SDS011;16450;50.288;10.966;2024-01-27T03:20:41;12.73;;;4.40;;
29500;SDS011;16450;50.288;10.966;2024-01-27T03:23:43;13.87;;;4.47;;
29500;SDS011;16450;50.288;10.966;2024-01-27T03:26:45;14.03;;;4.10;;
29500;SDS011;16450;50.288;10.966;2024-01-27T03:29:46;13.93;;;4.27;;
29500;SDS011;16450;50.288;10.966;2024-01-27T03:32:49;15.47;;;4.60;;
29500;SDS011;16450;50.288;10.966;2024-01-27T03:35:51;14.23;;;4.27;;
29500;SDS011;16450;50.288;10.966;2024-01-27T03:38:54;11.03;;;4.00;;
29500;SDS011;16450;50.288;10.966;2024-01-27T03:41:57;11.50;;;4.00;;
29500;SDS011;16450;50.288;10.966;2024-01-27T03:44:59;15.90;;;4.10;;
29500;SDS011;16450;50.288;10.966;2024-01-27T03:48:01;9.40;;;3.60;;
29500;SDS011;16450;50.288;10.966;2024-01-27T03:51:03;13.57;;;4.23;;
29500;SDS011;16450;50.288;10.966;2024-01-27T03:54:06;12.53;;;4.30;;
29500;SDS011;16450;50.288;10.966;2024-01-27T03:57:08;13.70;;;4.20;;
29500;SDS011;16450;50.288;10.966;2024-01-27T04:00:10;12.30;;;4.40;;
29500;SDS011;16450;50.288;10.966;2024-01-27T04:03:13;9.77;;;3.90;;
29500;SDS011;16450;50.288;10.966;2024-01-27T04:06:15;16.00;;;4.03;;
29500;SDS011;16450;50.288;10.966;2024-01-27T04:09:18;9.13;;;4.20;;
29500;SDS011;16450;50.288;10.966;2024-01-27T04:12:20;11.93;;;4.20;;
29500;SDS011;16450;50.288;10.966;2024-01-27T04:15:22;11.53;;;4.00;;
29500;SDS011;16450;50.288;10.966;2024-01-27T04:18:24;12.33;;;3.90;;
29500;SDS011;16450;50.288;10.966;2024-01-27T04:21:26;13.93;;;3.90;;
29500;SDS011;16450;50.288;10.966;2024-01-27T04:24:28;10.13;;;4.50;;
29500;SDS011;16450;50.288;10.966;2024-01-27T04:27:30;13.37;;;4.17;;
29500;SDS011;16450;50.288;10.966;2024-01-27T04:30:32;14.03;;;4.43;;
29500;SDS011;16450;50.288;10.966;2024-01-27T04:33:34;16.13;;;4.50;;
29500;SDS011;16450;50.288;10.966;2024-01-27T04:36:36;10.37;;;4.07;;
29500;SDS011;16450;50.288;10.966;2024-01-27T04:39:38;12.80;;;4.37;;
29500;SDS011;16450;50.288;10.966;2024-01-27T04:42:41;10.97;;;3.90;;
29500;SDS011;16450;50.288;10.966;2024-01-27T04:45:44;10.87;;;4.63;;
29500;SDS011;16450;50.288;10.966;2024-01-27T04:48:46;12.37;;;4.67;;
29500;SDS011;16450;50.288;10.966;2024-01-27T04:51:48;11.80;;;4.60;;
29500;SDS011;16450;50.288;10.966;2024-01-27T04:54:51;11.70;;;4.70;;
29500;SDS011;16450;50.288;10.966;2024-01-27T04:57:53;10.53;;;4.47;;
29500;SDS011;16450;50.288;10.966;2024-01-27T05:00:54;12.03;;;4.60;;
29500;SDS011;16450;50.288;10.966;2024-01-27T05:03:56;13.80;;;4.30;;
29500;SDS011;16450;50.288;10.966;2024-01-27T05:06:58;11.97;;;4.30;;
29500;SDS011;16450;50.288;10.966;2024-01-27T05:10:00;13.00;;;4.73;;
29500;SDS011;16450;50.288;10.966;2024-01-27T05:13:03;12.93;;;4.93;;
29500;SDS011;16450;50.288;10.966;2024-01-27T05:16:05;9.50;;;4.43;;
29500;SDS011;16450;50.288;10.966;2024-01-27T05:19:07;12.40;;;4.60;;
29500;SDS011;16450;50.288;10.966;2024-01-27T05:22:10;14.87;;;4.70;;
29500;SDS011;16450;50.288;10.966;2024-01-27T05:25:11;15.03;;;4.60;;
29500;SDS011;16450;50.288;10.966;2024-01-27T05:28:13;14.57;;;5.10;;
29500;SDS011;16450;50.288;10.966;2024-01-27T05:31:15;11.57;;;4.13;;
29500;SDS011;16450;50.288;10.966;2024-01-27T05:34:17;10.90;;;4.60;;
29500;SDS011;16450;50.288;10.966;2024-01-27T05:37:19;8.33;;;4.20;;
29500;SDS011;16450;50.288;10.966;2024-01-27T05:40:21;11.47;;;4.70;;
29500;SDS011;16450;50.288;10.966;2024-01-27T05:43:23;11.37;;;4.80;;
29500;SDS011;16450;50.288;10.966;2024-01-27T05:46:25;12.10;;;4.57;;
29500;SDS011;16450;50.288;10.966;2024-01-27T05:49:27;13.77;;;4.47;;
29500;SDS011;16450;50.288;10.966;2024-01-27T05:52:29;10.70;;;4.90;;
29500;SDS011;16450;50.288;10.966;2024-01-27T05:55:30;12.43;;;4.27;;
29500;SDS011;16450;50.288;10.966;2024-01-27T05:58:32;10.57;;;4.07;;
29500;SDS011;16450;50.288;10.966;2024-01-27T06:01:34;8.70;;;4.73;;
29500;SDS011;16450;50.288;10.966;2024-01-27T06:04:36;12.63;;;4.67;;
29500;SDS011;16450;50.288;10.966;2024-01-27T06:07:38;15.97;;;4.53;;
29500;SDS011;16450;50.288;10.966;2024-01-27T06:10:41;11.33;;;4.57;;
29500;SDS011;16450;50.288;10.966;2024-01-27T06:13:42;14.70;;;4.53;;
29500;SDS011;16450;50.288;10.966;2024-01-27T06:16:46;9.97;;;4.47;;
29500;SDS011;16450;50.288;10.966;2024-01-27T06:19:49;14.40;;;4.93;;
29500;SDS011;16450;50.288;10.966;2024-01-27T06:22:51;16.03;;;5.37;;
29500;SDS011;16450;50.288;10.966;2024-01-27T06:25:55;16.00;;;5.70;;
29500;SDS011;16450;50.288;10.966;2024-01-27T06:28:57;14.17;;;4.90;;
29500;SDS011;16450;50.288;10.966;2024-01-27T06:31:59;11.67;;;5.57;;
29500;SDS011;16450;50.288;10.966;2024-01-27T06:35:01;16.20;;;5.23;;
29500;SDS011;16450;50.288;10.966;2024-01-27T06:38:03;17.40;;;4.80;;
29500;SDS011;16450;50.288;10.966;2024-01-27T06:41:05;12.37;;;5.33;;
29500;SDS011;16450;50.288;10.966;2024-01-27T06:44:07;13.93;;;5.77;;
29500;SDS011;16450;50.288;10.966;2024-01-27T06:47:09;14.47;;;5.40;;
29500;SDS011;16450;50.288;10.966;2024-01-27T06:50:11;11.97;;;5.53;;
29500;SDS011;16450;50.288;10.966;2024-01-27T06:53:15;23.20;;;6.73;;
29500;SDS011;16450;50.288;10.966;2024-01-27T06:56:17;14.97;;;5.60;;
29500;SDS011;16450;50.288;10.966;2024-01-27T06:59:19;12.47;;;5.77;;
29500;SDS011;16450;50.288;10.966;2024-01-27T07:02:24;13.87;;;5.70;;
29500;SDS011;16450;50.288;10.966;2024-01-27T07:05:30;14.27;;;5.60;;
29500;SDS011;16450;50.288;10.966;2024-01-27T07:08:34;16.07;;;6.57;;
29500;SDS011;16450;50.288;10.966;2024-01-27T07:11:39;14.47;;;6.10;;
29500;SDS011;16450;50.288;10.966;2024-01-27T07:14:41;16.53;;;6.20;;
29500;SDS011;16450;50.288;10.966;2024-01-27T07:17:42;12.60;;;5.47;;
29500;SDS011;16450;50.288;10.966;2024-01-27T07:20:44;14.87;;;6.00;;
29500;SDS011;16450;50.288;10.966;2024-01-27T07:23:46;13.97;;;6.30;;
29500;SDS011;16450;50.288;10.966;2024-01-27T07:26:48;12.97;;;5.70;;
29500;SDS011;16450;50.288;10.966;2024-01-27T07:29:52;15.30;;;6.67;;
29500;SDS011;16450;50.288;10.966;2024-01-27T07:32:54;18.00;;;7.67;;
29500;SDS011;16450;50.288;10.966;2024-01-27T07:35:56;22.30;;;7.90;;
29500;SDS011;16450;50.288;10.966;2024-01-27T07:38:58;19.47;;;8.13;;
29500;SDS011;16450;50.288;10.966;2024-01-27T07:42:00;34.27;;;13.57;;
29500;SDS011;16450;50.288;10.966;2024-01-27T07:45:03;29.73;;;12.03;;
29500;SDS011;16450;50.288;10.966;2024-01-27T07:48:06;23.67;;;10.70;;
29500;SDS011;16450;50.288;10.966;2024-01-27T07:51:09;32.13;;;10.90;;
29500;SDS011;16450;50.288;10.966;2024-01-27T07:54:10;18.03;;;8.67;;
29500;SDS011;16450;50.288;10.966;2024-01-27T07:57:12;24.30;;;9.70;;
29500;SDS011;16450;50.288;10.966;2024-01-27T08:00:14;23.87;;;9.93;;
29500;SDS011;16450;50.288;10.966;2024-01-27T08:03:16;24.40;;;9.30;;
29500;SDS011;16450;50.288;10.966;2024-01-27T08:06:27;20.50;;;9.00;;
29500;SDS011;16450;50.288;10.966;2024-01-27T08:09:31;22.30;;;9.77;;
29500;SDS011;16450;50.288;10.966;2024-01-27T08:12:33;24.37;;;10.07;;
29500;SDS011;16450;50.288;10.966;2024-01-27T08:15:35;23.80;;;11.53;;
29500;SDS011;16450;50.288;10.966;2024-01-27T08:18:38;30.70;;;11.73;;
29500;SDS011;16450;50.288;10.966;2024-01-27T08:21:41;37.43;;;17.10;;
29500;SDS011;16450;50.288;10.966;2024-01-27T08:24:43;27.63;;;11.33;;
29500;SDS011;16450;50.288;10.966;2024-01-27T08:27:45;30.87;;;10.57;;
29500;SDS011;16450;50.288;10.966;2024-01-27T08:30:47;23.53;;;10.17;;
29500;SDS011;16450;50.288;10.966;2024-01-27T08:33:49;25.53;;;11.60;;
29500;SDS011;16450;50.288;10.966;2024-01-27T08:36:51;28.10;;;11.77;;
29500;SDS011;16450;50.288;10.966;2024-01-27T08:39:53;21.87;;;9.40;;
29500;SDS011;16450;50.288;10.966;2024-01-27T08:42:55;19.67;;;7.17;;
29500;SDS011;16450;50.288;10.966;2024-01-27T08:45:57;21.43;;;6.67;;
29500;SDS011;16450;50.288;10.966;2024-01-27T08:49:01;17.60;;;5.80;;
29500;SDS011;16450;50.288;10.966;2024-01-27T08:52:04;15.63;;;5.40;;
29500;SDS011;16450;50.288;10.966;2024-01-27T08:55:06;17.00;;;5.93;;
29500;SDS011;16450;50.288;10.966;2024-01-27T08:58:09;20.80;;;6.17;;
29500;SDS011;16450;50.288;10.966;2024-01-27T09:01:12;16.00;;;5.90;;
29500;SDS011;16450;50.288;10.966;2024-01-27T09:04:16;14.20;;;5.20;;
29500;SDS011;16450;50.288;10.966;2024-01-27T09:07:18;18.27;;;5.83;;
29500;SDS011;16450;50.288;10.966;2024-01-27T09:10:22;15.73;;;5.97;;
29500;SDS011;16450;50.288;10.966;2024-01-27T09:13:24;14.90;;;5.33;;
29500;SDS011;16450;50.288;10.966;2024-01-27T09:16:28;15.53;;;5.40;;
29500;SDS011;16450;50.288;10.966;2024-01-27T09:19:31;20.83;;;5.63;;
29500;SDS011;16450;50.288;10.966;2024-01-27T09:22:34;18.77;;;6.30;;
29500;SDS011;16450;50.288;10.966;2024-01-27T09:25:39;16.03;;;5.70;;
29500;SDS011;16450;50.288;10.966;2024-01-27T09:28:44;20.33;;;6.20;;
29500;SDS011;16450;50.288;10.966;2024-01-27T09:31:55;17.10;;;5.73;;
29500;SDS011;16450;50.288;10.966;2024-01-27T09:34:57;17.60;;;5.67;;
29500;SDS011;16450;50.288;10.966;2024-01-27T09:37:59;16.67;;;5.23;;
29500;SDS011;16450;50.288;10.966;2024-01-27T09:41:02;19.23;;;5.40;;
29500;SDS011;16450;50.288;10.966;2024-01-27T09:44:04;18.90;;;5.83;;
29500;SDS011;16450;50.288;10.966;2024-01-27T09:47:06;13.83;;;5.83;;
29500;SDS011;16450;50.288;10.966;2024-01-27T09:50:10;17.10;;;6.30;;
29500;SDS011;16450;50.288;10.966;2024-01-27T09:53:13;22.70;;;6.20;;
29500;SDS011;16450;50.288;10.966;2024-01-27T09:56:15;22.70;;;7.30;;
29500;SDS011;16450;50.288;10.966;2024-01-27T09:59:19;20.47;;;7.63;;
29500;SDS011;16450;50.288;10.966;2024-01-27T10:02:22;21.13;;;5.90;;
29500;SDS011;16450;50.288;10.966;2024-01-27T10:05:29;18.73;;;5.43;;
29500;SDS011;16450;50.288;10.966;2024-01-27T10:08:33;17.33;;;5.47;;
29500;SDS011;16450;50.288;10.966;2024-01-27T10:11:36;14.00;;;5.40;;
29500;SDS011;16450;50.288;10.966;2024-01-27T10:14:41;14.30;;;5.40;;
29500;SDS011;16450;50.288;10.966;2024-01-27T10:17:46;15.40;;;5.63;;
29500;SDS011;16450;50.288;10.966;2024-01-27T10:20:48;16.90;;;5.43;;
29500;SDS011;16450;50.288;10.966;2024-01-27T10:23:51;18.47;;;5.77;;
29500;SDS011;16450;50.288;10.966;2024-01-27T10:27:03;18.33;;;5.33;;
29500;SDS011;16450;50.288;10.966;2024-01-27T10:30:06;17.73;;;5.23;;
29500;SDS011;16450;50.288;10.966;2024-01-27T10:33:16;22.57;;;5.40;;
29500;SDS011;16450;50.288;10.966;2024-01-27T10:36:18;14.80;;;5.27;;
29500;SDS011;16450;50.288;10.966;2024-01-27T10:39:21;18.00;;;5.83;;
29500;SDS011;16450;50.288;10.966;2024-01-27T10:42:24;17.87;;;6.07;;
29500;SDS011;16450;50.288;10.966;2024-01-27T10:45:27;15.90;;;4.80;;
29500;SDS011;16450;50.288;10.966;2024-01-27T10:48:31;13.53;;;4.87;;
29500;SDS011;16450;50.288;10.966;2024-01-27T10:51:35;16.27;;;5.43;;
29500;SDS011;16450;50.288;10.966;2024-01-27T10:54:38;20.67;;;5.03;;
29500;SDS011;16450;50.288;10.966;2024-01-27T10:57:41;18.13;;;4.77;;
29500;SDS011;16450;50.288;10.966;2024-01-27T11:00:45;69.53;;;29.67;;
29500;SDS011;16450;50.288;10.966;2024-01-27T11:03:49;19.40;;;7.00;;
29500;SDS011;16450;50.288;10.966;2024-01-27T11:06:56;14.73;;;5.30;;
29500;SDS011;16450;50.288;10.966;2024-01-27T11:09:59;15.70;;;5.20;;
29500;SDS011;16450;50.288;10.966;2024-01-27T11:13:02;15.83;;;4.60;;
29500;SDS011;16450;50.288;10.966;2024-01-27T11:16:05;16.33;;;4.70;;
29500;SDS011;16450;50.288;10.966;2024-01-27T11:19:16;13.20;;;4.07;;
29500;SDS011;16450;50.288;10.966;2024-01-27T11:22:28;13.90;;;3.97;;
29500;SDS011;16450;50.288;10.966;2024-01-27T11:25:32;13.63;;;3.80;;
29500;SDS011;16450;50.288;10.966;2024-01-27T11:28:34;15.63;;;4.37;;
29500;SDS011;16450;50.288;10.966;2024-01-27T11:31:39;14.03;;;4.10;;
29500;SDS011;16450;50.288;10.966;2024-01-27T11:34:42;18.20;;;4.50;;
29500;SDS011;16450;50.288;10.966;2024-01-27T11:37:48;18.83;;;3.83;;
29500;SDS011;16450;50.288;10.966;2024-01-27T11:40:51;17.43;;;4.03;;
29500;SDS011;16450;50.288;10.966;2024-01-27T11:43:56;12.97;;;3.70;;
29500;SDS011;16450;50.288;10.966;2024-01-27T11:47:01;15.37;;;3.53;;
29500;SDS011;16450;50.288;10.966;2024-01-27T11:50:03;15.77;;;4.10;;
29500;SDS011;16450;50.288;10.966;2024-01-27T11:53:05;17.23;;;4.20;;
29500;SDS011;16450;50.288;10.966;2024-01-27T11:56:11;16.13;;;3.80;;
29500;SDS011;16450;50.288;10.966;2024-01-27T11:59:14;12.27;;;3.60;;
29500;SDS011;16450;50.288;10.966;2024-01-27T12:02:16;14.00;;;2.90;;
29500;SDS011;16450;50.288;10.966;2024-01-27T12:05:18;19.53;;;3.83;;
29500;SDS011;16450;50.288;10.966;2024-01-27T12:08:20;12.73;;;3.20;;
29500;SDS011;16450;50.288;10.966;2024-01-27T12:11:23;12.27;;;3.20;;
29500;SDS011;16450;50.288;10.966;2024-01-27T12:14:26;12.20;;;3.17;;
29500;SDS011;16450;50.288;10.966;2024-01-27T12:17:38;14.73;;;3.00;;
29500;SDS011;16450;50.288;10.966;2024-01-27T12:20:40;11.27;;;2.80;;
29500;SDS011;16450;50.288;10.966;2024-01-27T12:24:16;15.00;;;2.77;;
29500;SDS011;16450;50.288;10.966;2024-01-27T12:27:19;14.20;;;2.73;;
29500;SDS011;16450;50.288;10.966;2024-01-27T12:30:22;14.97;;;2.77;;
29500;SDS011;16450;50.288;10.966;2024-01-27T12:33:25;11.67;;;2.77;;
29500;SDS011;16450;50.288;10.966;2024-01-27T12:36:27;16.57;;;3.07;;
29500;SDS011;16450;50.288;10.966;2024-01-27T12:39:30;10.60;;;2.57;;
29500;SDS011;16450;50.288;10.966;2024-01-27T12:42:32;19.10;;;3.00;;
29500;SDS011;16450;50.288;10.966;2024-01-27T12:45:34;14.17;;;2.90;;
29500;SDS011;16450;50.288;10.966;2024-01-27T12:48:36;11.40;;;3.20;;
29500;SDS011;16450;50.288;10.966;2024-01-27T12:51:38;17.37;;;2.93;;
29500;SDS011;16450;50.288;10.966;2024-01-27T12:54:43;16.87;;;3.07;;
29500;SDS011;16450;50.288;10.966;2024-01-27T12:57:46;10.60;;;2.63;;
29500;SDS011;16450;50.288;10.966;2024-01-27T13:00:48;12.13;;;2.53;;
29500;SDS011;16450;50.288;10.966;2024-01-27T13:03:50;14.13;;;2.80;;
29500;SDS011;16450;50.288;10.966;2024-01-27T13:06:52;16.90;;;2.70;;
29500;SDS011;16450;50.288;10.966;2024-01-27T13:09:55;11.70;;;3.07;;
29500;SDS011;16450;50.288;10.966;2024-01-27T13:12:58;12.67;;;2.80;;
29500;SDS011;16450;50.288;10.966;2024-01-27T13:16:01;12.80;;;3.00;;
29500;SDS011;16450;50.288;10.966;2024-01-27T13:19:03;12.80;;;2.40;;
29500;SDS011;16450;50.288;10.966;2024-01-27T13:22:05;14.07;;;2.50;;
29500;SDS011;16450;50.288;10.966;2024-01-27T13:25:08;15.17;;;2.90;;
29500;SDS011;16450;50.288;10.966;2024-01-27T13:28:10;6.97;;;2.40;;
29500;SDS011;16450;50.288;10.966;2024-01-27T13:31:13;14.80;;;2.70;;
29500;SDS011;16450;50.288;10.966;2024-01-27T13:34:15;13.63;;;2.67;;
29500;SDS011;16450;50.288;10.966;2024-01-27T13:37:18;12.07;;;2.50;;
29500;SDS011;16450;50.288;10.966;2024-01-27T13:40:20;10.57;;;2.43;;
29500;SDS011;16450;50.288;10.966;2024-01-27T13:43:24;15.43;;;2.50;;
29500;SDS011;16450;50.288;10.966;2024-01-27T13:46:25;11.93;;;2.40;;
29500;SDS011;16450;50.288;10.966;2024-01-27T13:49:28;17.27;;;2.73;;
29500;SDS011;16450;50.288;10.966;2024-01-27T13:52:31;13.77;;;2.13;;
29500;SDS011;16450;50.288;10.966;2024-01-27T13:55:32;9.63;;;2.43;;
29500;SDS011;16450;50.288;10.966;2024-01-27T13:58:34;7.77;;;1.80;;
29500;SDS011;16450;50.288;10.966;2024-01-27T14:01:37;12.37;;;2.43;;
29500;SDS011;16450;50.288;10.966;2024-01-27T14:04:39;13.47;;;2.67;;
29500;SDS011;16450;50.288;10.966;2024-01-27T14:07:41;10.23;;;2.93;;
29500;SDS011;16450;50.288;10.966;2024-01-27T14:10:43;11.60;;;2.20;;
29500;SDS011;16450;50.288;10.966;2024-01-27T14:13:46;10.63;;;2.30;;
29500;SDS011;16450;50.288;10.966;2024-01-27T14:16:48;16.03;;;2.60;;
29500;SDS011;16450;50.288;10.966;2024-01-27T14:19:49;12.60;;;2.07;;
29500;SDS011;16450;50.288;10.966;2024-01-27T14:22:52;11.53;;;2.30;;
29500;SDS011;16450;50.288;10.966;2024-01-27T14:25:54;10.90;;;2.20;;
29500;SDS011;16450;50.288;10.966;2024-01-27T14:28:55;10.97;;;1.90;;
29500;SDS011;16450;50.288;10.966;2024-01-27T14:31:58;15.70;;;2.60;;
29500;SDS011;16450;50.288;10.966;2024-01-27T14:35:00;10.70;;;2.03;;
29500;SDS011;16450;50.288;10.966;2024-01-27T14:38:07;16.27;;;2.47;;
29500;SDS011;16450;50.288;10.966;2024-01-27T14:41:10;10.10;;;2.87;;
29500;SDS011;16450;50.288;10.966;2024-01-27T14:44:15;8.50;;;2.00;;
29500;SDS011;16450;50.288;10.966;2024-01-27T14:47:17;14.60;;;2.53;;
29500;SDS011;16450;50.288;10.966;2024-01-27T14:50:19;9.87;;;2.10;;
29500;SDS011;16450;50.288;10.966;2024-01-27T14:53:21;12.60;;;2.20;;
29500;SDS011;16450;50.288;10.966;2024-01-27T14:56:23;8.53;;;2.30;;
29500;SDS011;16450;50.288;10.966;2024-01-27T14:59:25;15.20;;;2.37;;
29500;SDS011;16450;50.288;10.966;2024-01-27T15:02:27;12.30;;;2.50;;
29500;SDS011;16450;50.288;10.966;2024-01-27T15:05:30;7.23;;;2.03;;
29500;SDS011;16450;50.288;10.966;2024-01-27T15:08:34;10.47;;;3.10;;
29500;SDS011;16450;50.288;10.966;2024-01-27T15:11:36;11.83;;;2.63;;
29500;SDS011;16450;50.288;10.966;2024-01-27T15:14:38;11.20;;;3.10;;
29500;SDS011;16450;50.288;10.966;2024-01-27T15:17:40;13.10;;;2.90;;
29500;SDS011;16450;50.288;10.966;2024-01-27T15:20:42;14.67;;;3.03;;
29500;SDS011;16450;50.288;10.966;2024-01-27T15:23:44;18.97;;;4.53;;
29500;SDS011;16450;50.288;10.966;2024-01-27T15:26:46;17.30;;;3.90;;
29500;SDS011;16450;50.288;10.966;2024-01-27T15:29:48;17.33;;;4.20;;
29500;SDS011;16450;50.288;10.966;2024-01-27T15:32:51;14.57;;;4.77;;
29500;SDS011;16450;50.288;10.966;2024-01-27T15:35:53;16.00;;;5.10;;
29500;SDS011;16450;50.288;10.966;2024-01-27T15:38:55;16.83;;;4.30;;
29500;SDS011;16450;50.288;10.966;2024-01-27T15:41:57;16.27;;;5.10;;
29500;SDS011;16450;50.288;10.966;2024-01-27T15:45:03;12.07;;;4.07;;
29500;SDS011;16450;50.288;10.966;2024-01-27T15:48:06;13.67;;;3.80;;
29500;SDS011;16450;50.288;10.966;2024-01-27T15:51:09;16.30;;;3.60;;
29500;SDS011;16450;50.288;10.966;2024-01-27T15:54:11;12.90;;;4.43;;
29500;SDS011;16450;50.288;10.966;2024-01-27T15:57:13;18.50;;;4.67;;
29500;SDS011;16450;50.288;10.966;2024-01-27T16:00:18;16.77;;;4.87;;
29500;SDS011;16450;50.288;10.966;2024-01-27T16:03:20;16.83;;;6.17;;
29500;SDS011;16450;50.288;10.966;2024-01-27T16:06:22;20.07;;;6.30;;
29500;SDS011;16450;50.288;10.966;2024-01-27T16:09:25;28.00;;;9.57;;
29500;SDS011;16450;50.288;10.966;2024-01-27T16:12:31;23.33;;;9.13;;
29500;SDS011;16450;50.288;10.966;2024-01-27T16:15:34;19.83;;;8.80;;
29500;SDS011;16450;50.288;10.966;2024-01-27T16:18:36;43.83;;;20.90;;
29500;SDS011;16450;50.288;10.966;2024-01-27T16:21:38;34.93;;;16.90;;
29500;SDS011;16450;50.288;10.966;2024-01-27T16:24:40;26.23;;;10.47;;
29500;SDS011;16450;50.288;10.966;2024-01-27T16:27:43;21.70;;;10.10;;
29500;SDS011;16450;50.288;10.966;2024-01-27T16:30:45;23.90;;;10.37;;
29500;SDS011;16450;50.288;10.966;2024-01-27T16:33:48;27.03;;;10.77;;
29500;SDS011;16450;50.288;10.966;2024-01-27T16:36:50;36.97;;;14.70;;
29500;SDS011;16450;50.288;10.966;2024-01-27T16:39:52;28.43;;;13.00;;
29500;SDS011;16450;50.288;10.966;2024-01-27T16:42:53;32.97;;;14.47;;
29500;SDS011;16450;50.288;10.966;2024-01-27T16:45:55;33.97;;;13.03;;
29500;SDS011;16450;50.288;10.966;2024-01-27T16:48:58;31.03;;;12.73;;
29500;SDS011;16450;50.288;10.966;2024-01-27T16:52:00;29.77;;;12.93;;
29500;SDS011;16450;50.288;10.966;2024-01-27T16:55:03;29.27;;;12.57;;
29500;SDS011;16450;50.288;10.966;2024-01-27T16:58:05;24.20;;;10.90;;
29500;SDS011;16450;50.288;10.966;2024-01-27T17:01:08;24.93;;;10.67;;
29500;SDS011;16450;50.288;10.966;2024-01-27T17:04:10;27.77;;;10.97;;
29500;SDS011;16450;50.288;10.966;2024-01-27T17:07:16;19.43;;;9.33;;
29500;SDS011;16450;50.288;10.966;2024-01-27T17:10:18;26.83;;;12.17;;
29500;SDS011;16450;50.288;10.966;2024-01-27T17:13:20;30.97;;;13.00;;
29500;SDS011;16450;50.288;10.966;2024-01-27T17:16:22;42.77;;;19.70;;
29500;SDS011;16450;50.288;10.966;2024-01-27T17:19:24;60.03;;;28.50;;
29500;SDS011;16450;50.288;10.966;2024-01-27T17:22:26;45.07;;;20.63;;
29500;SDS011;16450;50.288;10.966;2024-01-27T17:25:28;42.73;;;23.30;;
29500;SDS011;16450;50.288;10.966;2024-01-27T17:28:30;60.10;;;29.07;;
29500;SDS011;16450;50.288;10.966;2024-01-27T17:31:32;57.93;;;29.53;;
29500;SDS011;16450;50.288;10.966;2024-01-27T17:34:34;60.20;;;31.27;;
29500;SDS011;16450;50.288;10.966;2024-01-27T17:37:36;56.87;;;27.43;;
29500;SDS011;16450;50.288;10.966;2024-01-27T17:40:38;48.00;;;26.20;;
29500;SDS011;16450;50.288;10.966;2024-01-27T17:43:40;47.23;;;23.43;;
29500;SDS011;16450;50.288;10.966;2024-01-27T17:46:42;37.50;;;20.27;;